Time;durP1;ratioP1;P1;durP2;ratioP2;P2;SDS_P1;SDS_P2;PMS_P1;PMS_P2;Temp;Humidity;BMP_temperature;BMP_pressure;BME280_temperature;BME280_humidity;BME280_pressure;Samples;Min_cycle;Max_cycle;Signal;HPM_P1;HPM_P2
2023/12/27 00:02:26;;;;;;;7.33;2.33;;;;;;;5.04;100.00;101836.00;6162273;28;20250;-66
2023/12/27 00:05:47;;;;;;;6.73;2.30;;;;;;;5.04;100.00;101841.34;6163217;28;20234;-68
2023/12/27 00:09:08;;;;;;;5.40;2.80;;;;;;;5.04;100.00;101848.50;6151657;28;20241;-68
2023/12/27 00:12:29;;;;;;;6.20;2.93;;;;;;;5.00;100.00;101860.28;6164257;28;20234;-68
2023/12/27 00:15:51;;;;;;;4.23;3.00;;;;;;;4.99;100.00;101850.50;6167767;28;20234;-69
2023/12/27 00:19:12;;;;;;;7.50;3.60;;;;;;;5.01;100.00;101852.19;6163956;28;20321;-68
2023/12/27 00:22:33;;;;;;;10.57;2.23;;;;;;;5.02;100.00;101853.91;6171249;28;20230;-68
2023/12/27 00:25:54;;;;;;;5.93;2.07;;;;;;;5.02;100.00;101861.94;6162489;28;22726;-69
2023/12/27 00:29:15;;;;;;;2.97;2.10;;;;;;;4.97;100.00;101868.44;6161577;28;20234;-68
2023/12/27 00:32:37;;;;;;;4.40;2.20;;;;;;;4.93;100.00;101875.75;6173879;28;20238;-68
2023/12/27 00:35:58;;;;;;;4.00;2.80;;;;;;;4.90;100.00;101873.25;6171369;28;20239;-68
2023/12/27 00:39:23;;;;;;;5.43;2.27;;;;;;;4.82;100.00;101876.28;6161567;28;20226;-68
2023/12/27 00:42:46;;;;;;;3.43;2.90;;;;;;;4.78;100.00;101885.38;6160159;28;20790;-67
2023/12/27 00:46:07;;;;;;;4.83;2.00;;;;;;;4.83;100.00;101895.84;6154442;28;20230;-68
2023/12/27 00:49:30;;;;;;;4.73;2.57;;;;;;;4.81;100.00;101898.59;6161740;28;20321;-69
2023/12/27 00:52:51;;;;;;;6.60;2.27;;;;;;;4.81;100.00;101890.59;6162464;28;20227;-68
2023/12/27 00:56:12;;;;;;;7.60;3.27;;;;;;;4.82;100.00;101897.63;6163388;28;20242;-68
2023/12/27 00:59:34;;;;;;;8.43;2.70;;;;;;;4.71;100.00;101901.78;6162460;28;20234;-68
2023/12/27 01:02:55;;;;;;;4.17;2.67;;;;;;;4.72;100.00;101909.72;6161645;28;20241;-68
2023/12/27 01:06:17;;;;;;;4.80;2.20;;;;;;;4.76;100.00;101927.31;6158273;28;20231;-68
2023/12/27 01:09:38;;;;;;;2.67;2.17;;;;;;;4.73;100.00;101916.81;6147114;28;20573;-67
2023/12/27 01:12:59;;;;;;;9.73;2.10;;;;;;;4.64;100.00;101917.22;6162645;28;20254;-68
2023/12/27 01:16:20;;;;;;;8.70;2.97;;;;;;;4.56;100.00;101918.53;6174610;28;20234;-67
2023/12/27 01:19:41;;;;;;;8.63;3.67;;;;;;;4.52;100.00;101928.50;6161802;28;20266;-68
2023/12/27 01:23:03;;;;;;;4.40;2.00;;;;;;;4.56;100.00;101930.09;6160616;28;20230;-68
2023/12/27 01:26:25;;;;;;;5.97;2.17;;;;;;;4.53;100.00;101932.88;6165735;28;20638;-68
2023/12/27 01:29:46;;;;;;;2.80;1.60;;;;;;;4.46;100.00;101935.94;6171071;28;20238;-68
2023/12/27 01:33:07;;;;;;;4.27;2.60;;;;;;;4.52;100.00;101949.84;6162844;28;20563;-68
2023/12/27 01:36:28;;;;;;;3.37;2.20;;;;;;;4.41;100.00;101941.47;6160078;28;20238;-68
2023/12/27 01:39:50;;;;;;;8.33;2.47;;;;;;;4.36;100.00;101961.31;6165005;28;20525;-69
2023/12/27 01:43:11;;;;;;;3.73;2.47;;;;;;;4.52;100.00;101952.53;6176193;28;20831;-69
2023/12/27 01:46:32;;;;;;;9.10;2.70;;;;;;;4.60;100.00;101963.72;6163434;28;20238;-68
2023/12/27 01:49:54;;;;;;;6.37;2.87;;;;;;;4.63;100.00;101966.22;6178528;28;20320;-68
2023/12/27 01:53:15;;;;;;;2.83;1.70;;;;;;;4.68;100.00;101953.53;6164321;28;20551;-68
2023/12/27 01:56:38;;;;;;;4.40;2.77;;;;;;;4.58;100.00;101954.03;6163167;28;20215;-68
2023/12/27 01:59:59;;;;;;;5.80;2.17;;;;;;;4.39;100.00;101962.03;6169190;28;20329;-68
2023/12/27 02:03:21;;;;;;;7.43;3.60;;;;;;;4.33;100.00;101962.31;6167613;28;20226;-68
2023/12/27 02:06:44;;;;;;;4.97;2.20;;;;;;;4.30;100.00;101972.28;6176765;28;20316;-68
2023/12/27 02:10:06;;;;;;;3.83;2.53;;;;;;;4.23;100.00;101970.81;6171458;28;20330;-68
2023/12/27 02:13:29;;;;;;;8.17;2.00;;;;;;;4.31;100.00;101980.19;6160742;28;20230;-68
2023/12/27 02:16:51;;;;;;;2.90;2.43;;;;;;;4.22;100.00;101975.25;6174960;28;20237;-67
2023/12/27 02:20:12;;;;;;;6.17;2.00;;;;;;;4.24;100.00;101983.19;6172826;28;20230;-68
2023/12/27 02:23:34;;;;;;;4.23;2.03;;;;;;;4.17;100.00;101973.75;6173200;28;20259;-68
2023/12/27 02:26:57;;;;;;;3.97;1.97;;;;;;;4.12;100.00;101971.28;6164797;28;20249;-67
2023/12/27 02:30:19;;;;;;;4.23;2.23;;;;;;;4.14;100.00;101971.19;6162721;28;20242;-68
2023/12/27 02:33:44;;;;;;;10.57;4.07;;;;;;;4.01;100.00;101979.75;6150592;28;20952;-67
2023/12/27 02:37:05;;;;;;;3.53;2.00;;;;;;;4.08;100.00;101969.69;6170193;28;20237;-68
2023/12/27 02:40:25;;;;;;;4.73;1.83;;;;;;;4.01;100.00;101969.09;6158665;28;20718;-68
2023/12/27 02:43:48;;;;;;;5.30;2.13;;;;;;;4.01;100.00;101978.88;6163326;28;20230;-69
2023/12/27 02:47:09;;;;;;;3.13;1.90;;;;;;;3.98;100.00;101979.03;6167875;28;20245;-69
2023/12/27 02:50:30;;;;;;;7.80;2.00;;;;;;;4.14;100.00;101982.75;6157544;28;20243;-68
2023/12/27 02:53:51;;;;;;;5.90;1.93;;;;;;;4.05;100.00;101983.16;6162162;28;20229;-68
2023/12/27 02:57:13;;;;;;;3.30;1.90;;;;;;;4.01;100.00;101989.56;6143009;28;20226;-68
2023/12/27 03:00:37;;;;;;;6.70;3.17;;;;;;;3.98;100.00;101992.38;6159323;28;20769;-68
2023/12/27 03:03:58;;;;;;;7.77;2.87;;;;;;;3.97;100.00;101998.63;6156166;28;20329;-67
2023/12/27 03:07:19;;;;;;;6.83;2.60;;;;;;;4.00;100.00;101995.84;6163326;28;20317;-68
2023/12/27 03:10:41;;;;;;;5.47;1.93;;;;;;;4.01;100.00;101995.75;6160156;28;20250;-68
2023/12/27 03:14:02;;;;;;;4.07;2.23;;;;;;;3.96;100.00;101991.56;6158003;28;20234;-68
2023/12/27 03:17:24;;;;;;;2.80;2.33;;;;;;;3.96;100.00;101991.56;6152860;28;20671;-68
2023/12/27 03:20:45;;;;;;;6.80;2.10;;;;;;;3.92;100.00;101987.31;6162211;28;20559;-67
2023/12/27 03:24:07;;;;;;;3.73;1.97;;;;;;;4.03;100.00;101988.56;6166706;28;20301;-68
2023/12/27 03:27:28;;;;;;;9.77;3.77;;;;;;;3.95;100.00;101984.50;6175019;28;20223;-67
2023/12/27 03:30:50;;;;;;;9.17;2.97;;;;;;;3.99;100.00;101989.63;6180176;28;20244;-68
2023/12/27 03:34:14;;;;;;;6.23;4.43;;;;;;;3.94;100.00;101982.78;6162357;28;20246;-69
2023/12/27 03:37:36;;;;;;;6.90;1.77;;;;;;;3.91;100.00;101981.09;6169511;28;20230;-68
2023/12/27 03:40:57;;;;;;;8.40;2.77;;;;;;;3.94;100.00;101983.63;6169098;28;20237;-68
2023/12/27 03:44:18;;;;;;;3.87;1.93;;;;;;;3.84;100.00;101989.41;6162024;28;20226;-68
2023/12/27 03:47:39;;;;;;;3.37;1.70;;;;;;;3.79;100.00;101994.97;6163792;28;20253;-69
2023/12/27 03:51:01;;;;;;;9.37;3.10;;;;;;;3.81;100.00;102000.22;6163050;28;20318;-68
2023/12/27 03:54:22;;;;;;;4.63;2.13;;;;;;;3.77;100.00;101994.16;6158943;28;20346;-67
2023/12/27 03:57:43;;;;;;;14.50;3.90;;;;;;;3.72;100.00;101997.94;6164476;28;20600;-69
2023/12/27 04:01:04;;;;;;;4.27;3.07;;;;;;;3.67;100.00;102000.81;6167892;28;20325;-69
2023/12/27 04:04:25;;;;;;;4.50;2.47;;;;;;;3.65;100.00;102010.66;6153032;28;20593;-68
2023/12/27 04:07:48;;;;;;;4.37;2.20;;;;;;;3.63;100.00;102003.69;6176281;28;20525;-69
2023/12/27 04:11:09;;;;;;;11.63;2.27;;;;;;;3.67;100.00;102000.81;6161675;28;20491;-68
2023/12/27 04:14:30;;;;;;;2.90;2.17;;;;;;;3.69;100.00;102009.59;6165935;28;20245;-67
2023/12/27 04:17:51;;;;;;;2.73;2.20;;;;;;;3.86;100.00;102003.53;6163383;28;20234;-68
2023/12/27 04:21:12;;;;;;;7.37;4.63;;;;;;;3.81;100.00;102014.44;6158837;28;20687;-68
2023/12/27 04:24:34;;;;;;;7.83;3.83;;;;;;;3.85;100.00;102007.16;6158004;28;20748;-68
2023/12/27 04:27:56;;;;;;;7.40;3.00;;;;;;;3.85;100.00;102002.72;6169370;28;20230;-68
2023/12/27 04:31:17;;;;;;;6.33;2.50;;;;;;;3.94;100.00;101994.28;6177139;28;20563;-68
2023/12/27 04:34:39;;;;;;;6.07;2.30;;;;;;;3.95;100.00;101989.81;6166455;28;20226;-68
2023/12/27 04:38:00;;;;;;;3.93;2.37;;;;;;;3.96;100.00;101997.75;6166853;28;20230;-69
2023/12/27 04:41:22;;;;;;;4.77;2.23;;;;;;;4.07;100.00;101977.75;6161057;28;20227;-68
2023/12/27 04:44:43;;;;;;;8.77;2.97;;;;;;;3.92;100.00;101981.97;6158720;28;20325;-68
2023/12/27 04:48:05;;;;;;;8.23;3.63;;;;;;;3.84;100.00;101979.63;6161165;28;20243;-68
2023/12/27 04:51:25;;;;;;;9.70;2.83;;;;;;;3.78;100.00;101987.00;6161118;28;20254;-68
2023/12/27 04:54:46;;;;;;;8.20;3.23;;;;;;;3.82;100.00;101996.63;6160834;28;20238;-69
2023/12/27 04:58:09;;;;;;;6.77;2.93;;;;;;;3.78;100.00;102011.00;6173355;28;20321;-68
2023/12/27 05:01:30;;;;;;;8.47;3.40;;;;;;;3.77;100.00;102019.97;6161519;28;20254;-68
2023/12/27 05:04:51;;;;;;;4.23;2.30;;;;;;;3.76;100.00;102018.22;6161236;28;20235;-68
2023/12/27 05:08:12;;;;;;;4.13;2.53;;;;;;;3.78;100.00;102019.00;6172545;28;20226;-68
2023/12/27 05:11:33;;;;;;;5.63;3.43;;;;;;;3.87;100.00;102022.19;6164176;28;20226;-68
2023/12/27 05:14:55;;;;;;;4.07;2.97;;;;;;;4.00;100.00;102036.69;6163400;28;20239;-68
2023/12/27 05:18:16;;;;;;;3.43;2.00;;;;;;;4.18;100.00;102045.72;6161810;28;20223;-68
2023/12/27 05:21:37;;;;;;;6.10;3.50;;;;;;;4.11;100.00;102048.72;6163882;28;20309;-69
2023/12/27 05:24:58;;;;;;;8.63;2.67;;;;;;;4.08;100.00;102041.72;6161930;28;20589;-68
2023/12/27 05:28:19;;;;;;;14.97;3.30;;;;;;;4.16;100.00;102036.91;6163111;28;20226;-67
2023/12/27 05:31:42;;;;;;;4.30;2.17;;;;;;;4.20;100.00;102040.31;6147109;28;20590;-68
2023/12/27 05:35:03;;;;;;;6.20;3.07;;;;;;;4.21;100.00;102045.59;6160335;28;20253;-67
2023/12/27 05:38:25;;;;;;;4.17;2.23;;;;;;;4.19;100.00;102041.25;6164444;28;20231;-69
2023/12/27 05:41:46;;;;;;;7.73;3.43;;;;;;;4.22;100.00;102033.97;6162059;28;20226;-68
2023/12/27 05:45:08;;;;;;;8.23;2.77;;;;;;;4.26;100.00;102040.91;6163545;28;20612;-68
2023/12/27 05:48:31;;;;;;;5.07;3.10;;;;;;;4.28;100.00;102047.03;6161237;28;20528;-68
2023/12/27 05:51:52;;;;;;;5.47;1.93;;;;;;;4.43;100.00;102054.38;6162983;28;20234;-68
2023/12/27 05:55:12;;;;;;;9.80;4.43;;;;;;;4.41;100.00;102047.38;6159834;28;20231;-67
2023/12/27 05:58:34;;;;;;;5.93;3.47;;;;;;;4.47;100.00;102045.28;6163588;28;20234;-68
2023/12/27 06:01:54;;;;;;;2.33;2.00;;;;;;;4.51;100.00;102052.22;6159620;28;20551;-68
2023/12/27 06:05:17;;;;;;;10.63;3.20;;;;;;;4.44;100.00;102050.78;6153598;28;20234;-68
2023/12/27 06:08:38;;;;;;;8.70;3.50;;;;;;;4.58;100.00;102051.03;6163426;28;20230;-69
2023/12/27 06:11:59;;;;;;;4.37;2.50;;;;;;;4.68;100.00;102049.66;6162182;28;20234;-68
2023/12/27 06:15:20;;;;;;;5.43;2.40;;;;;;;4.72;100.00;102053.94;6158425;28;23265;-67
2023/12/27 06:18:41;;;;;;;4.33;2.70;;;;;;;4.83;100.00;102056.09;6163724;28;20227;-67
2023/12/27 06:22:04;;;;;;;10.63;4.17;;;;;;;4.87;100.00;102055.03;6163994;28;20242;-67
2023/12/27 06:25:25;;;;;;;4.83;2.67;;;;;;;4.88;100.00;102051.44;6160381;28;20246;-68
2023/12/27 06:28:46;;;;;;;5.40;2.97;;;;;;;4.95;100.00;102055.53;6162672;28;20310;-68
2023/12/27 06:32:07;;;;;;;4.23;1.63;;;;;;;4.76;100.00;102051.97;6158291;28;20235;-68
2023/12/27 06:35:28;;;;;;;6.33;2.07;;;;;;;4.74;100.00;102052.06;6163520;28;20514;-68
2023/12/27 06:38:51;;;;;;;4.97;1.97;;;;;;;4.71;100.00;102054.84;6162559;28;20226;-68
2023/12/27 06:42:12;;;;;;;5.10;3.30;;;;;;;4.67;100.00;102061.28;6169542;28;20246;-69
2023/12/27 06:45:34;;;;;;;4.83;2.13;;;;;;;4.62;100.00;102052.63;6155738;28;20230;-68
2023/12/27 06:48:55;;;;;;;12.43;3.83;;;;;;;4.63;100.00;102070.38;6152960;28;20227;-68
2023/12/27 06:52:16;;;;;;;3.43;2.50;;;;;;;4.72;100.00;102074.41;6157758;28;20691;-68
2023/12/27 06:55:38;;;;;;;6.03;2.13;;;;;;;4.82;100.00;102067.72;6159222;28;20231;-68
2023/12/27 06:58:59;;;;;;;4.63;2.03;;;;;;;4.79;100.00;102054.53;6158606;28;20620;-68
2023/12/27 07:02:20;;;;;;;3.83;2.57;;;;;;;4.94;100.00;102064.50;6164476;28;21243;-68
2023/12/27 07:05:41;;;;;;;5.03;2.27;;;;;;;4.94;100.00;102063.63;6164461;28;20533;-68
2023/12/27 07:09:03;;;;;;;3.23;2.17;;;;;;;4.90;100.00;102067.38;6161636;28;20329;-68
2023/12/27 07:12:26;;;;;;;7.63;2.37;;;;;;;4.88;100.00;102062.97;6164475;28;20241;-68
2023/12/27 07:15:47;;;;;;;7.77;2.13;;;;;;;4.92;100.00;102052.16;6161631;28;20663;-68
2023/12/27 07:19:09;;;;;;;2.93;2.33;;;;;;;4.95;100.00;102058.22;6166438;28;20222;-68
2023/12/27 07:22:30;;;;;;;6.73;3.63;;;;;;;4.79;100.00;102058.06;6171087;28;20230;-69
2023/12/27 07:25:50;;;;;;;4.70;2.03;;;;;;;4.79;100.00;102067.88;6164000;28;20247;-69
2023/12/27 07:29:13;;;;;;;9.73;2.80;;;;;;;4.78;100.00;102063.47;6164545;28;20226;-68
2023/12/27 07:32:34;;;;;;;4.90;1.70;;;;;;;4.83;100.00;102072.13;6163255;28;20234;-69
2023/12/27 07:35:55;;;;;;;4.43;2.43;;;;;;;4.71;100.00;102062.03;6160696;28;20233;-67
2023/12/27 07:39:16;;;;;;;4.00;2.73;;;;;;;4.76;100.00;102062.66;6167401;28;20230;-68
2023/12/27 07:42:37;;;;;;;10.63;2.30;;;;;;;4.70;100.00;102070.94;6164229;28;20246;-68
2023/12/27 07:46:00;;;;;;;7.47;2.90;;;;;;;4.78;100.00;102071.47;6168419;28;20242;-68
2023/12/27 07:49:21;;;;;;;3.33;2.47;;;;;;;4.69;100.00;102063.91;6164715;28;20234;-69
2023/12/27 07:52:42;;;;;;;7.33;2.57;;;;;;;4.62;100.00;102063.31;6151182;28;20231;-68
2023/12/27 07:56:08;;;;;;;5.53;2.57;;;;;;;4.56;100.00;102068.03;6160250;28;20612;-68
2023/12/27 07:59:31;;;;;;;4.67;2.67;;;;;;;4.53;100.00;102076.19;6160879;28;20310;-68
2023/12/27 08:02:53;;;;;;;7.03;2.67;;;;;;;4.56;100.00;102063.59;6159089;28;20230;-69
2023/12/27 08:06:14;;;;;;;6.80;3.27;;;;;;;4.52;100.00;102070.00;6160427;28;20349;-68
2023/12/27 08:09:36;;;;;;;5.77;3.30;;;;;;;4.57;100.00;102062.63;6160137;28;20704;-68
2023/12/27 08:12:58;;;;;;;6.27;2.40;;;;;;;4.63;100.00;102062.34;6165787;28;20222;-68
2023/12/27 08:16:19;;;;;;;7.97;4.50;;;;;;;4.65;100.00;102067.66;6163169;28;20261;-69
2023/12/27 08:19:41;;;;;;;7.57;3.37;;;;;;;4.66;100.00;102061.34;6164600;28;20285;-68
2023/12/27 08:23:02;;;;;;;6.73;2.80;;;;;;;4.71;100.00;102073.53;6164991;28;20234;-68
2023/12/27 08:26:23;;;;;;;9.20;2.83;;;;;;;4.76;100.00;102078.69;6162407;28;20600;-68
2023/12/27 08:29:44;;;;;;;6.13;3.60;;;;;;;4.78;100.00;102076.81;6161947;28;20402;-68
2023/12/27 08:33:06;;;;;;;6.13;3.00;;;;;;;4.98;100.00;102086.59;6162517;28;20234;-69
2023/12/27 08:36:29;;;;;;;3.90;3.17;;;;;;;5.12;100.00;102081.47;6161675;28;20257;-68
2023/12/27 08:39:50;;;;;;;4.10;3.13;;;;;;;5.14;100.00;102075.13;6163627;28;20226;-68
2023/12/27 08:43:11;;;;;;;5.90;2.80;;;;;;;5.33;100.00;102077.78;6161084;28;20226;-68
2023/12/27 08:46:32;;;;;;;4.37;3.20;;;;;;;5.74;100.00;102081.13;6164541;28;20250;-66
2023/12/27 08:49:55;;;;;;;4.17;2.97;;;;;;;6.07;100.00;102084.81;6157145;28;20349;-67
2023/12/27 08:53:17;;;;;;;3.50;3.20;;;;;;;6.53;100.00;102075.28;6160897;28;20254;-66
2023/12/27 08:56:38;;;;;;;6.33;3.57;;;;;;;6.80;100.00;102077.31;6159547;28;20775;-68
2023/12/27 08:59:59;;;;;;;7.50;3.00;;;;;;;6.35;100.00;102077.97;6159838;28;20242;-68
2023/12/27 09:03:20;;;;;;;5.57;3.00;;;;;;;6.54;100.00;102083.22;6159679;28;20828;-66
2023/12/27 09:06:41;;;;;;;5.40;3.53;;;;;;;6.59;100.00;102081.19;6168488;28;20635;-67
2023/12/27 09:10:05;;;;;;;8.83;2.93;;;;;;;6.79;100.00;102062.22;6156741;28;20266;-66
2023/12/27 09:13:26;;;;;;;5.30;2.90;;;;;;;6.77;100.00;102076.63;6159874;28;20226;-67
2023/12/27 09:16:47;;;;;;;3.63;2.50;;;;;;;6.52;100.00;102073.53;6158537;28;20238;-67
2023/12/27 09:20:09;;;;;;;3.57;2.67;;;;;;;6.49;100.00;102079.91;6157958;28;20227;-67
2023/12/27 09:23:30;;;;;;;4.00;2.47;;;;;;;6.18;100.00;102079.78;6151321;28;20227;-69
2023/12/27 09:26:53;;;;;;;7.67;3.50;;;;;;;6.11;100.00;102079.22;6157992;28;20322;-69
2023/12/27 09:30:14;;;;;;;5.33;2.80;;;;;;;5.97;100.00;102084.41;6165078;28;20230;-68
2023/12/27 09:33:35;;;;;;;6.73;4.37;;;;;;;6.11;100.00;102089.91;6160353;28;21380;-68
2023/12/27 09:36:56;;;;;;;5.27;3.13;;;;;;;6.12;100.00;102090.78;6165457;28;20501;-69
2023/12/27 09:40:17;;;;;;;7.10;2.97;;;;;;;5.95;100.00;102090.78;6164367;28;20219;-68
2023/12/27 09:43:41;;;;;;;7.37;3.10;;;;;;;5.64;100.00;102089.59;6160384;28;20719;-68
2023/12/27 09:47:04;;;;;;;3.83;2.67;;;;;;;5.62;100.00;102090.59;6152653;28;20321;-69
2023/12/27 09:50:25;;;;;;;4.17;3.20;;;;;;;5.86;100.00;102081.38;6157565;28;20238;-69
2023/12/27 09:53:46;;;;;;;99.73;58.77;;;;;;;6.54;100.00;102075.19;6158978;28;20238;-70
2023/12/27 09:57:07;;;;;;;10.03;6.77;;;;;;;7.58;100.00;102072.03;6161749;28;20266;-68
2023/12/27 10:00:34;;;;;;;5.50;4.13;;;;;;;7.24;100.00;102072.19;6156783;28;20322;-67
2023/12/27 10:04:00;;;;;;;9.70;8.90;;;;;;;7.22;100.00;102058.91;6153580;28;20230;-67
2023/12/27 10:07:25;;;;;;;16.80;14.73;;;;;;;6.58;100.00;102066.03;6158589;28;20317;-69
2023/12/27 10:10:47;;;;;;;3.83;3.07;;;;;;;6.32;100.00;102053.16;6160089;28;20779;-67
2023/12/27 10:14:08;;;;;;;4.77;3.47;;;;;;;6.28;100.00;102048.88;6162282;28;20226;-67
2023/12/27 10:17:31;;;;;;;6.47;3.87;;;;;;;6.43;100.00;102050.78;6154840;28;20337;-68
2023/12/27 10:20:53;;;;;;;3.53;3.10;;;;;;;6.08;100.00;102052.63;6150220;28;20525;-68
2023/12/27 10:24:14;;;;;;;10.93;3.80;;;;;;;6.01;100.00;102048.50;6156186;28;20239;-68
2023/12/27 10:27:35;;;;;;;4.07;2.83;;;;;;;5.53;100.00;102045.59;6155168;28;20912;-69
2023/12/27 10:30:56;;;;;;;4.13;2.50;;;;;;;5.33;100.00;102032.34;6153395;28;20234;-69
2023/12/27 10:34:18;;;;;;;4.00;2.77;;;;;;;5.21;100.00;102027.59;6156843;28;20601;-68
2023/12/27 10:37:39;;;;;;;4.13;2.70;;;;;;;5.58;100.00;102016.81;6156194;28;20580;-68
2023/12/27 10:41:03;;;;;;;6.13;2.83;;;;;;;5.13;100.00;102025.25;6157538;28;20235;-68
2023/12/27 10:44:25;;;;;;;3.20;2.43;;;;;;;5.25;100.00;102015.81;6159910;28;20258;-68
2023/12/27 10:47:49;;;;;;;5.10;2.20;;;;;;;4.94;100.00;102019.09;6150797;28;21382;-68
2023/12/27 10:51:13;;;;;;;4.43;2.00;;;;;;;5.14;100.00;102004.75;6158916;28;20230;-69
2023/12/27 10:54:34;;;;;;;4.60;2.90;;;;;;;5.43;100.00;101991.69;6160295;28;20234;-68
2023/12/27 10:57:56;;;;;;;7.10;2.03;;;;;;;5.38;100.00;101990.22;6154148;28;20425;-68
2023/12/27 11:01:18;;;;;;;5.03;2.33;;;;;;;4.95;100.00;101982.53;6155442;28;20235;-68
2023/12/27 11:04:42;;;;;;;5.17;3.20;;;;;;;4.85;100.00;101982.97;6159155;28;20671;-68
2023/12/27 11:08:06;;;;;;;5.70;2.97;;;;;;;5.01;100.00;101984.91;6150237;28;20231;-68
2023/12/27 11:11:30;;;;;;;4.33;2.40;;;;;;;5.07;100.00;101974.78;6152993;28;20230;-68
2023/12/27 11:14:53;;;;;;;5.33;2.73;;;;;;;5.46;100.00;101955.94;6152449;28;20227;-68
2023/12/27 11:18:14;;;;;;;3.77;2.97;;;;;;;5.58;100.00;101947.28;6154030;28;20242;-67
2023/12/27 11:21:36;;;;;;;3.87;3.37;;;;;;;5.19;100.00;101943.94;6147403;28;20238;-68
2023/12/27 11:24:59;;;;;;;10.43;5.20;;;;;;;5.21;100.00;101940.25;6159433;28;20226;-69
2023/12/27 11:28:20;;;;;;;10.57;2.57;;;;;;;5.41;100.00;101936.56;6152245;28;20230;-68
2023/12/27 11:31:42;;;;;;;5.33;3.20;;;;;;;5.27;100.00;101936.41;6139758;28;20620;-68
2023/12/27 11:35:04;;;;;;;7.03;3.83;;;;;;;5.56;100.00;101935.81;6146555;28;20238;-68
2023/12/27 11:38:27;;;;;;;6.87;3.40;;;;;;;5.59;100.00;101925.81;6149269;28;20238;-67
2023/12/27 11:41:49;;;;;;;9.47;4.73;;;;;;;5.42;100.00;101912.41;6146165;28;20502;-68
2023/12/27 11:45:11;;;;;;;3.90;3.47;;;;;;;5.61;100.00;101899.84;6143962;28;20325;-68
2023/12/27 11:48:34;;;;;;;5.03;2.27;;;;;;;5.40;100.00;101897.44;6149285;28;20242;-68
2023/12/27 11:51:55;;;;;;;4.40;3.77;;;;;;;5.41;100.00;101894.66;6151199;28;20247;-69
2023/12/27 11:55:17;;;;;;;6.13;3.47;;;;;;;5.67;100.00;101890.66;6152739;28;20242;-68
2023/12/27 11:58:41;;;;;;;8.30;3.17;;;;;;;5.24;100.00;101883.97;6152019;28;20227;-68
2023/12/27 12:02:04;;;;;;;5.57;2.90;;;;;;;5.37;100.00;101879.72;6154052;28;20269;-68
2023/12/27 12:05:48;;;;;;;19.03;2.83;;;;;;;5.41;100.00;101894.66;6148145;28;20802;-68
2023/12/27 12:09:09;;;;;;;5.67;3.87;;;;;;;5.54;100.00;101884.19;6158293;28;20234;-68
2023/12/27 12:12:31;;;;;;;5.13;3.47;;;;;;;5.53;100.00;101874.44;6148344;28;20239;-68
2023/12/27 12:15:54;;;;;;;8.03;3.80;;;;;;;5.51;100.00;101879.00;6151670;28;20223;-68
2023/12/27 12:19:16;;;;;;;5.53;4.30;;;;;;;5.40;100.00;101868.00;6169257;28;20239;-68
2023/12/27 12:22:39;;;;;;;9.20;2.70;;;;;;;5.39;100.00;101864.47;6163344;28;20222;-69
2023/12/27 12:26:01;;;;;;;6.87;3.00;;;;;;;5.39;100.00;101852.91;6161732;28;20235;-67
2023/12/27 12:29:22;;;;;;;5.80;3.23;;;;;;;5.17;100.00;101837.13;6149802;28;20242;-67
2023/12/27 12:32:45;;;;;;;4.57;3.00;;;;;;;5.49;100.00;101830.09;6150565;28;20230;-68
2023/12/27 12:36:06;;;;;;;2.90;2.57;;;;;;;5.59;100.00;101817.97;6150572;28;20238;-68
2023/12/27 12:39:28;;;;;;;5.13;2.60;;;;;;;5.69;100.00;101800.50;6156502;28;20223;-68
2023/12/27 12:42:49;;;;;;;7.80;3.40;;;;;;;5.53;100.00;101799.56;6157789;28;20606;-67
2023/12/27 12:46:13;;;;;;;3.50;1.97;;;;;;;5.52;100.00;101793.38;6149008;28;20254;-68
2023/12/27 12:49:36;;;;;;;5.23;2.00;;;;;;;5.71;100.00;101784.34;6150799;28;20242;-68
2023/12/27 12:52:57;;;;;;;4.77;3.63;;;;;;;5.64;100.00;101779.34;6143347;28;20234;-68
2023/12/27 12:56:18;;;;;;;7.00;2.77;;;;;;;5.77;100.00;101773.31;6156417;28;20238;-68
2023/12/27 12:59:41;;;;;;;3.93;2.03;;;;;;;5.78;100.00;101769.72;6146773;28;20226;-68
2023/12/27 13:03:05;;;;;;;5.20;2.70;;;;;;;5.73;100.00;101759.25;6150551;28;20628;-67
2023/12/27 13:06:27;;;;;;;7.83;3.43;;;;;;;5.68;100.00;101756.81;6150564;28;23437;-69
2023/12/27 13:09:56;;;;;;;5.33;3.07;;;;;;;5.54;100.00;101754.03;6155921;28;20254;-68
2023/12/27 13:13:17;;;;;;;11.07;4.03;;;;;;;5.40;100.00;101745.03;6157082;28;20250;-67
2023/12/27 13:16:38;;;;;;;8.17;2.73;;;;;;;5.53;100.00;101744.28;6154681;28;20242;-68
2023/12/27 13:19:59;;;;;;;7.10;3.50;;;;;;;5.56;100.00;101730.75;6146723;28;20522;-68
2023/12/27 13:23:21;;;;;;;2.83;2.10;;;;;;;5.63;100.00;101718.75;6151154;28;20660;-68
2023/12/27 13:26:43;;;;;;;4.43;3.10;;;;;;;5.73;100.00;101732.50;6155780;28;20235;-68
2023/12/27 13:30:04;;;;;;;4.33;2.97;;;;;;;5.75;100.00;101708.34;6145846;28;20241;-68
2023/12/27 13:33:25;;;;;;;6.90;3.27;;;;;;;5.58;100.00;101699.44;6150611;28;20226;-68
2023/12/27 13:36:46;;;;;;;5.67;2.60;;;;;;;5.67;100.00;101690.06;6152860;28;20632;-68
2023/12/27 13:40:10;;;;;;;2.87;2.40;;;;;;;5.76;100.00;101676.13;6149443;28;20719;-68
2023/12/27 13:43:31;;;;;;;6.57;2.93;;;;;;;5.74;100.00;101667.34;6156682;28;20263;-69
2023/12/27 13:46:52;;;;;;;4.87;2.20;;;;;;;5.77;100.00;101664.50;6150323;28;20223;-67
2023/12/27 13:50:13;;;;;;;1.93;1.80;;;;;;;5.77;100.00;101659.16;6143928;28;20226;-68
2023/12/27 13:53:35;;;;;;;8.80;2.53;;;;;;;5.82;100.00;101661.56;6146500;28;20257;-68
2023/12/27 13:56:57;;;;;;;2.90;2.07;;;;;;;5.79;100.00;101651.91;6147409;28;20497;-70
2023/12/27 14:00:19;;;;;;;5.37;2.57;;;;;;;5.82;100.00;101654.38;6149363;28;20613;-68
2023/12/27 14:03:41;;;;;;;4.10;3.47;;;;;;;5.84;100.00;101659.72;6144164;28;20238;-66
2023/12/27 14:07:03;;;;;;;6.20;3.60;;;;;;;5.84;100.00;101649.00;6149590;28;20235;-66
2023/12/27 14:10:24;;;;;;;5.07;2.60;;;;;;;5.77;100.00;101632.41;6142212;28;20361;-66
2023/12/27 14:13:46;;;;;;;4.47;3.07;;;;;;;5.84;100.00;101631.13;6151521;28;20631;-66
2023/12/27 14:17:07;;;;;;;3.23;2.50;;;;;;;5.81;100.00;101625.06;6160862;28;20241;-66
2023/12/27 14:20:29;;;;;;;5.77;2.77;;;;;;;5.72;100.00;101618.41;6155199;28;20243;-66
2023/12/27 14:23:50;;;;;;;4.03;2.30;;;;;;;5.77;100.00;101607.47;6149568;28;20767;-67
2023/12/27 14:27:11;;;;;;;3.13;2.83;;;;;;;5.74;100.00;101603.16;6143397;28;20238;-65
2023/12/27 14:30:33;;;;;;;2.83;2.30;;;;;;;5.63;100.00;101603.75;6148900;28;20793;-66
2023/12/27 14:33:55;;;;;;;5.77;2.20;;;;;;;5.62;100.00;101603.84;6151265;28;20254;-68
2023/12/27 14:37:15;;;;;;;4.13;2.20;;;;;;;5.68;100.00;101596.34;6155014;28;20235;-67
2023/12/27 14:40:36;;;;;;;12.87;4.63;;;;;;;5.78;100.00;101594.00;6158515;28;20242;-67
2023/12/27 14:43:57;;;;;;;5.60;2.20;;;;;;;5.81;100.00;101593.81;6157627;28;20230;-65
2023/12/27 14:47:20;;;;;;;4.43;2.33;;;;;;;5.75;100.00;101588.84;6166524;28;20218;-66
2023/12/27 14:50:41;;;;;;;6.77;3.63;;;;;;;5.73;100.00;101579.16;6148854;28;20321;-66
2023/12/27 14:54:02;;;;;;;5.30;2.77;;;;;;;5.75;100.00;101571.91;6158523;28;20230;-66
2023/12/27 14:57:25;;;;;;;8.30;2.50;;;;;;;5.66;100.00;101557.25;6159943;28;20230;-65
2023/12/27 15:00:46;;;;;;;3.13;2.83;;;;;;;5.77;100.00;101552.16;6144092;28;20286;-66
2023/12/27 15:04:08;;;;;;;5.37;2.57;;;;;;;5.82;100.00;101535.84;6145261;28;20259;-66
2023/12/27 15:07:29;;;;;;;2.33;2.00;;;;;;;5.75;100.00;101545.16;6145163;28;22955;-66
2023/12/27 15:10:50;;;;;;;9.40;3.13;;;;;;;5.66;100.00;101523.34;6148163;28;20234;-66
2023/12/27 15:14:11;;;;;;;3.40;2.43;;;;;;;5.69;100.00;101523.16;6149328;28;20628;-66
2023/12/27 15:17:33;;;;;;;5.57;2.80;;;;;;;5.66;100.00;101514.47;6151743;28;20785;-67
2023/12/27 15:20:55;;;;;;;8.77;2.73;;;;;;;5.66;100.00;101499.28;6156941;28;20231;-65
2023/12/27 15:24:16;;;;;;;6.23;2.40;;;;;;;5.68;100.00;101496.50;6164474;28;20238;-66
2023/12/27 15:27:40;;;;;;;6.27;2.63;;;;;;;5.51;100.00;101472.56;6156538;28;20309;-67
2023/12/27 15:31:00;;;;;;;8.43;4.23;;;;;;;5.51;100.00;101457.38;6152082;28;20238;-67
2023/12/27 15:34:21;;;;;;;5.23;3.03;;;;;;;5.35;100.00;101464.59;6155736;28;20254;-68
2023/12/27 15:37:45;;;;;;;6.43;3.50;;;;;;;5.46;100.00;101456.81;6150983;28;20639;-67